Time;durP1;ratioP1;P1;durP2;ratioP2;P2;SDS_P1;SDS_P2;PMS_P1;PMS_P2;Temp;Humidity;BMP_temperature;BMP_pressure;BME280_temperature;BME280_humidity;BME280_pressure;Samples;Min_cycle;Max_cycle;Signal;HPM_P1;HPM_P2
2022/02/24 00:02:02;;;;;;;11.43;6.27;;;;;;;5.83;72.15;95388.31;5075631;28;20444;-85
2022/02/24 00:04:29;;;;;;;8.50;5.70;;;;;;;5.81;71.87;95395.38;5075930;28;20558;-84
2022/02/24 00:06:56;;;;;;;12.33;6.30;;;;;;;5.60;71.54;95385.28;5075342;28;20441;-84
2022/02/24 00:19:30;;;;;;;18.17;6.10;;;;;;;5.83;72.45;95391.75;5074153;28;20479;-84
2022/02/24 00:21:57;;;;;;;11.20;6.07;;;;;;;5.72;71.93;95393.28;5075060;28;20448;-84
2022/02/24 00:24:24;;;;;;;9.10;6.70;;;;;;;5.60;72.99;95380.06;5074744;28;20441;-83
2022/02/24 00:26:51;;;;;;;13.60;5.97;;;;;;;5.55;73.68;95382.09;5074939;28;20437;-83
2022/02/24 00:29:18;;;;;;;10.90;6.00;;;;;;;5.48;74.25;95378.16;5075383;28;20437;-84
2022/02/24 00:31:45;;;;;;;13.90;6.83;;;;;;;5.45;73.97;95383.53;5074930;28;20948;-84
2022/02/24 00:34:12;;;;;;;5.23;4.73;;;;;;;5.44;74.84;95376.66;5056366;28;20437;-84
2022/02/24 00:36:41;;;;;;;9.13;6.23;;;;;;;5.45;75.15;95377.47;5074509;28;20456;-84
2022/02/24 00:39:08;;;;;;;9.70;5.33;;;;;;;5.38;73.60;95368.34;5074461;28;20445;-84
2022/02/24 00:41:35;;;;;;;10.13;5.60;;;;;;;5.38;74.38;95371.78;5074825;28;20808;-84
2022/02/24 00:44:02;;;;;;;14.30;7.50;;;;;;;5.37;74.29;95377.94;5074926;28;20842;-85
2022/02/24 00:46:28;;;;;;;14.60;7.20;;;;;;;5.37;74.50;95362.31;5073866;28;20456;-84
2022/02/24 00:48:55;;;;;;;22.77;8.07;;;;;;;5.28;74.72;95353.28;5073966;28;20524;-84
2022/02/24 00:51:23;;;;;;;10.00;5.60;;;;;;;5.29;74.65;95352.34;5074188;28;20445;-84
2022/02/24 00:53:51;;;;;;;15.17;5.40;;;;;;;5.27;75.29;95364.59;5074812;28;20950;-84
2022/02/24 00:56:18;;;;;;;10.60;5.33;;;;;;;5.24;77.96;95364.78;5039155;28;20445;-84
2022/02/24 00:58:45;;;;;;;21.43;6.70;;;;;;;5.22;76.65;95366.63;5023270;28;20466;-84
2022/02/24 01:01:12;;;;;;;11.90;6.10;;;;;;;5.21;74.88;95374.53;5074219;28;20481;-84
2022/02/24 01:03:39;;;;;;;8.37;5.10;;;;;;;5.21;76.51;95364.97;5074155;28;20453;-83
2022/02/24 01:06:06;;;;;;;11.17;6.00;;;;;;;5.19;75.68;95374.59;5074816;28;20450;-84
2022/02/24 01:08:33;;;;;;;14.80;6.10;;;;;;;5.12;75.05;95357.66;5074196;28;20451;-84
2022/02/24 01:11:01;;;;;;;17.53;6.53;;;;;;;5.28;74.70;95360.25;5074347;28;20463;-84
2022/02/24 01:13:28;;;;;;;10.90;5.93;;;;;;;5.20;74.75;95365.88;5073942;28;20476;-84
2022/02/24 01:15:55;;;;;;;8.13;5.47;;;;;;;5.18;73.82;95366.88;5075159;28;20540;-84
2022/02/24 01:18:22;;;;;;;8.03;5.30;;;;;;;5.10;75.17;95361.25;5073872;28;20531;-84
2022/02/24 01:20:50;;;;;;;18.23;6.87;;;;;;;5.14;75.77;95354.97;5074420;28;20476;-84
2022/02/24 01:30:01;;;;;;;7.73;5.23;;;;;;;5.02;74.78;95369.50;5072718;28;20467;-84
2022/02/24 01:32:28;;;;;;;7.43;4.87;;;;;;;4.91;75.43;95367.47;5074110;28;20438;-84
2022/02/24 01:34:58;;;;;;;7.70;5.57;;;;;;;4.96;76.07;95360.28;5073710;28;20437;-84
2022/02/24 01:37:25;;;;;;;9.80;5.57;;;;;;;4.87;75.24;95365.13;5039282;28;20436;-84
2022/02/24 01:39:52;;;;;;;13.70;7.43;;;;;;;4.79;75.17;95359.53;5073338;28;20480;-84
2022/02/24 01:42:19;;;;;;;8.20;5.97;;;;;;;4.86;75.17;95368.66;5055106;28;20437;-84
2022/02/24 01:44:48;;;;;;;17.17;5.13;;;;;;;4.77;74.45;95363.97;5073547;28;20429;-86
2022/02/24 01:47:16;;;;;;;7.63;4.87;;;;;;;4.80;74.94;95375.03;5073550;28;20475;-85
2022/02/24 01:49:44;;;;;;;9.30;6.13;;;;;;;4.85;74.99;95383.41;5073502;28;20460;-83
2022/02/24 01:52:13;;;;;;;9.30;5.80;;;;;;;4.81;74.87;95371.50;5073271;28;20467;-84
2022/02/24 01:54:41;;;;;;;8.70;5.10;;;;;;;4.90;73.95;95381.41;5073563;28;20440;-84
2022/02/24 01:57:09;;;;;;;6.17;4.50;;;;;;;4.85;73.43;95378.22;5073459;28;20455;-83
2022/02/24 01:59:37;;;;;;;13.70;5.37;;;;;;;4.86;73.45;95377.28;5073556;28;20455;-84
2022/02/24 02:02:04;;;;;;;8.30;4.87;;;;;;;4.83;72.85;95364.47;5073254;28;20951;-85
2022/02/24 02:04:34;;;;;;;8.30;4.80;;;;;;;4.79;73.06;95365.56;5073229;28;20425;-85
2022/02/24 02:07:01;;;;;;;12.23;5.10;;;;;;;4.83;72.96;95367.06;5073492;28;20432;-84
2022/02/24 02:09:29;;;;;;;10.20;5.13;;;;;;;4.83;74.20;95363.63;5073147;28;20459;-85
2022/02/24 02:11:56;;;;;;;9.70;4.77;;;;;;;4.83;72.74;95369.66;5073114;28;20434;-84
2022/02/24 02:14:23;;;;;;;6.00;4.17;;;;;;;4.80;73.17;95369.00;5072662;28;20441;-84
2022/02/24 02:16:52;;;;;;;12.10;4.60;;;;;;;4.76;73.62;95377.88;5073165;28;20938;-84
2022/02/24 02:19:20;;;;;;;13.70;5.20;;;;;;;4.73;73.42;95365.91;5021265;28;20482;-84
2022/02/24 02:21:48;;;;;;;12.40;4.70;;;;;;;4.72;73.12;95369.41;5073175;28;20476;-84
2022/02/24 02:24:15;;;;;;;6.53;4.37;;;;;;;4.59;73.81;95376.19;5073526;28;20432;-84
2022/02/24 02:33:26;;;;;;;8.87;5.23;;;;;;;4.41;76.08;95371.97;5072159;28;20434;-84
2022/02/24 02:35:53;;;;;;;7.63;5.03;;;;;;;4.29;76.33;95363.91;5073137;28;20444;-84
2022/02/24 02:38:21;;;;;;;8.20;4.80;;;;;;;4.36;76.69;95380.03;5072999;28;20814;-85
2022/02/24 02:40:48;;;;;;;13.43;5.80;;;;;;;4.38;76.81;95377.34;5037961;28;20506;-84
2022/02/24 02:43:15;;;;;;;7.63;4.63;;;;;;;4.42;77.32;95384.91;5066307;28;20488;-84
2022/02/24 02:45:42;;;;;;;5.33;4.70;;;;;;;4.35;76.90;95379.19;5001739;28;20449;-84
2022/02/24 02:48:09;;;;;;;16.43;4.87;;;;;;;4.27;77.06;95385.69;5053036;28;20456;-84
2022/02/24 02:50:36;;;;;;;7.93;4.57;;;;;;;4.34;77.17;95395.69;5052741;28;20449;-85
2022/02/24 02:53:03;;;;;;;8.23;5.03;;;;;;;4.19;76.47;95383.50;5052789;28;20472;-84
2022/02/24 02:55:52;;;;;;;8.87;4.57;;;;;;;4.18;78.35;95391.38;5053084;28;20764;-84
2022/02/24 02:58:19;;;;;;;8.73;5.20;;;;;;;4.25;77.19;95393.56;5052860;28;20437;-84
2022/02/24 03:00:45;;;;;;;9.73;5.40;;;;;;;4.28;77.10;95396.00;5052970;28;20495;-84
2022/02/24 03:03:12;;;;;;;8.07;4.80;;;;;;;4.20;76.61;95394.72;5052810;28;20433;-83
2022/02/24 03:05:39;;;;;;;10.27;4.80;;;;;;;4.08;77.83;95390.16;5002151;28;20441;-85
2022/02/24 03:08:07;;;;;;;5.60;4.50;;;;;;;4.11;76.83;95395.22;5053732;28;20973;-85
2022/02/24 03:10:34;;;;;;;4.67;3.97;;;;;;;4.11;77.42;95392.59;5057447;28;20457;-84
2022/02/24 03:13:03;;;;;;;8.47;6.10;;;;;;;4.07;76.68;95394.53;5056373;28;20460;-84
2022/02/24 03:15:30;;;;;;;11.70;5.70;;;;;;;4.03;76.66;95395.56;5056401;28;20448;-84
2022/02/24 03:17:57;;;;;;;6.80;4.73;;;;;;;4.07;76.37;95394.53;5056235;28;20816;-83
2022/02/24 03:20:24;;;;;;;7.90;5.73;;;;;;;4.07;76.24;95402.31;5021809;28;20830;-84
2022/02/24 03:22:51;;;;;;;5.23;4.57;;;;;;;4.08;77.12;95410.94;5056301;28;20461;-84
2022/02/24 03:25:18;;;;;;;7.17;5.00;;;;;;;4.15;76.87;95409.72;5055836;28;20451;-84
2022/02/24 03:27:45;;;;;;;11.23;4.43;;;;;;;4.12;76.55;95402.91;5055816;28;21031;-85
2022/02/24 03:30:14;;;;;;;10.37;5.53;;;;;;;4.08;75.79;95409.19;5056013;28;20435;-84
2022/02/24 03:32:43;;;;;;;13.13;7.03;;;;;;;4.04;77.36;95412.84;5056119;28;20820;-85
2022/02/24 03:35:10;;;;;;;8.43;4.07;;;;;;;4.00;75.89;95416.50;5056853;28;20870;-85
2022/02/24 03:37:37;;;;;;;8.97;4.80;;;;;;;3.94;75.67;95409.88;5056036;28;20444;-84
2022/02/24 03:40:06;;;;;;;6.90;4.33;;;;;;;4.01;75.48;95420.78;5055916;28;20576;-84
2022/02/24 03:42:32;;;;;;;7.37;4.93;;;;;;;4.02;75.44;95427.66;5056252;28;20920;-85
2022/02/24 03:45:00;;;;;;;6.37;4.33;;;;;;;3.92;75.75;95429.88;5075495;28;20437;-85
2022/02/24 03:47:29;;;;;;;7.30;4.60;;;;;;;3.91;75.97;95427.38;5040525;28;20441;-85
2022/02/24 03:53:17;;;;;;;7.63;4.80;;;;;;;3.82;75.45;95436.47;5077745;28;20448;-83
2022/02/24 03:55:44;;;;;;;5.33;4.50;;;;;;;3.80;76.14;95434.84;5075609;28;20463;-84
2022/02/24 03:58:11;;;;;;;5.50;4.57;;;;;;;3.75;75.87;95429.88;5075292;28;20775;-84
2022/02/24 04:00:38;;;;;;;6.67;4.00;;;;;;;3.93;75.93;95428.13;5074503;28;20928;-84
2022/02/24 04:03:06;;;;;;;8.40;5.00;;;;;;;4.03;77.76;95443.16;5075618;28;20451;-85
2022/02/24 04:05:33;;;;;;;6.87;4.50;;;;;;;4.02;74.42;95438.03;5074566;28;20459;-84
2022/02/24 04:08:00;;;;;;;9.83;4.63;;;;;;;4.00;74.24;95434.69;5074579;28;20444;-84
2022/02/24 04:10:27;;;;;;;8.83;4.30;;;;;;;4.02;74.14;95445.81;5074468;28;20455;-84
2022/02/24 04:12:54;;;;;;;11.47;5.40;;;;;;;4.00;74.54;95438.13;5074544;28;20448;-84
2022/02/24 04:15:21;;;;;;;13.10;5.60;;;;;;;3.92;75.02;95447.22;5072029;28;20447;-84
2022/02/24 04:17:49;;;;;;;6.70;4.57;;;;;;;3.87;75.47;95441.41;5055565;28;20850;-84
2022/02/24 04:20:17;;;;;;;11.60;6.63;;;;;;;3.88;74.87;95441.34;5073863;28;20452;-84
2022/02/24 04:22:44;;;;;;;38.67;16.50;;;;;;;3.94;76.56;95429.81;5074018;28;20938;-84
2022/02/24 04:25:11;;;;;;;67.87;35.30;;;;;;;3.94;74.28;95433.25;5074071;28;20544;-84
2022/02/24 04:27:45;;;;;;;38.57;22.97;;;;;;;3.92;75.00;95436.84;5074702;28;20444;-84
2022/02/24 04:30:12;;;;;;;37.80;22.97;;;;;;;3.90;74.11;95433.47;5074342;28;20878;-84
2022/02/24 04:32:40;;;;;;;112.43;72.73;;;;;;;3.89;74.07;95444.78;5074186;28;20559;-84
2022/02/24 04:35:07;;;;;;;86.20;66.27;;;;;;;3.89;73.31;95437.00;5073993;28;20453;-84
2022/02/24 04:37:36;;;;;;;22.07;19.70;;;;;;;3.86;73.57;95435.38;5074147;28;20450;-84
2022/02/24 04:40:03;;;;;;;14.73;12.90;;;;;;;3.92;74.00;95440.25;5073986;28;20454;-84
2022/02/24 04:42:30;;;;;;;11.43;7.90;;;;;;;3.89;72.96;95442.19;5073815;28;20483;-84
2022/02/24 04:45:00;;;;;;;13.53;8.47;;;;;;;3.95;73.18;95452.25;5073950;28;20448;-85
2022/02/24 04:47:28;;;;;;;13.93;9.13;;;;;;;3.91;73.33;95455.91;5073719;28;20451;-84
2022/02/24 04:49:55;;;;;;;20.30;8.60;;;;;;;3.89;72.96;95457.75;5073920;28;20448;-84
2022/02/24 04:52:22;;;;;;;19.70;8.47;;;;;;;3.92;73.23;95462.78;5073936;28;20576;-85
2022/02/24 04:54:50;;;;;;;12.90;7.73;;;;;;;3.97;72.07;95466.00;5073564;28;20814;-84
2022/02/24 04:57:17;;;;;;;13.63;8.10;;;;;;;4.03;72.96;95463.09;5073569;28;20810;-84
2022/02/24 04:59:44;;;;;;;13.17;7.30;;;;;;;4.11;73.26;95468.75;5073605;28;20464;-84
2022/02/24 05:02:11;;;;;;;19.90;7.43;;;;;;;4.15;71.28;95477.22;5073051;28;20516;-83
2022/02/24 05:04:39;;;;;;;5.90;5.07;;;;;;;4.11;71.52;95476.53;5073221;28;20451;-85
2022/02/24 05:07:06;;;;;;;10.90;4.90;;;;;;;4.09;70.70;95474.94;5073200;28;20449;-84
2022/02/24 05:09:32;;;;;;;8.03;4.60;;;;;;;4.12;71.14;95486.03;5088240;28;20450;-84
2022/02/24 05:12:01;;;;;;;10.50;6.17;;;;;;;4.11;71.00;95481.75;5093745;28;20463;-84
2022/02/24 05:14:28;;;;;;;12.00;4.53;;;;;;;4.22;71.09;95497.63;5092529;28;20465;-85
2022/02/24 05:16:54;;;;;;;9.33;5.47;;;;;;;4.18;70.10;95490.91;5093126;28;20833;-83
2022/02/24 05:19:21;;;;;;;14.70;6.40;;;;;;;4.31;71.11;95494.53;5093445;28;20553;-85
2022/02/24 05:21:48;;;;;;;11.77;4.70;;;;;;;4.33;70.76;95505.69;5092958;28;20482;-84
2022/02/24 05:24:15;;;;;;;8.93;6.37;;;;;;;4.30;70.53;95497.22;5090780;28;20469;-84
2022/02/24 05:26:42;;;;;;;11.10;6.13;;;;;;;4.28;70.19;95496.47;5092905;28;20458;-85
2022/02/24 05:29:11;;;;;;;10.33;6.90;;;;;;;4.28;70.40;95497.31;5092444;28;20943;-83
2022/02/24 05:31:37;;;;;;;19.03;7.23;;;;;;;4.31;70.10;95517.09;5093195;28;20467;-83
2022/02/24 05:34:04;;;;;;;17.73;7.67;;;;;;;4.26;71.83;95509.53;5058883;28;20439;-84
2022/02/24 05:36:31;;;;;;;18.10;6.93;;;;;;;4.43;71.81;95519.09;5094399;28;20436;-84
2022/02/24 05:38:58;;;;;;;12.33;5.70;;;;;;;4.72;70.86;95524.56;5095041;28;20478;-81
2022/02/24 05:41:25;;;;;;;13.90;6.23;;;;;;;4.81;68.30;95527.50;5094197;28;20487;-84
2022/02/24 05:43:53;;;;;;;10.63;5.10;;;;;;;4.93;68.83;95539.88;5095065;28;20968;-84
2022/02/24 05:46:21;;;;;;;8.57;4.57;;;;;;;4.91;67.34;95553.84;5094947;28;20432;-85
2022/02/24 05:48:48;;;;;;;29.27;12.70;;;;;;;4.98;68.14;95550.88;5094543;28;20431;-84
2022/02/24 05:51:15;;;;;;;23.33;11.30;;;;;;;5.02;68.54;95556.75;5093755;28;20463;-84
2022/02/24 06:00:25;;;;;;;8.50;5.30;;;;;;;4.81;70.13;95555.25;5093137;28;20478;-84
2022/02/24 06:02:54;;;;;;;8.17;5.80;;;;;;;4.75;68.50;95555.59;5058300;28;20475;-84
2022/02/24 06:05:21;;;;;;;13.73;9.23;;;;;;;4.76;69.36;95559.88;5094657;28;20434;-83
2022/02/24 06:07:49;;;;;;;11.43;6.80;;;;;;;4.63;69.09;95549.25;5093604;28;20451;-82
2022/02/24 06:10:15;;;;;;;31.73;19.53;;;;;;;4.69;70.95;95554.16;5094069;28;20435;-84
2022/02/24 06:12:43;;;;;;;42.73;19.00;;;;;;;4.72;69.62;95553.97;5093588;28;20452;-81
2022/02/24 06:15:11;;;;;;;21.77;10.83;;;;;;;4.61;69.96;95551.06;5093807;28;20812;-84
2022/02/24 06:17:38;;;;;;;25.20;13.10;;;;;;;4.70;71.58;95562.78;5093391;28;20450;-84
2022/02/24 06:20:08;;;;;;;32.37;12.00;;;;;;;4.75;69.58;95553.81;5095757;28;20475;-85
2022/02/24 06:22:35;;;;;;;24.77;14.00;;;;;;;4.72;69.35;95559.19;5074451;28;20486;-85
2022/02/24 06:25:02;;;;;;;257.40;114.77;;;;;;;5.88;91.06;95552.97;5096770;28;20444;-87
2022/02/24 06:27:29;;;;;;;26.07;15.40;;;;;;;6.32;70.76;95570.47;5093222;28;20448;-84
2022/02/24 06:29:57;;;;;;;18.13;8.97;;;;;;;5.90;67.16;95571.97;5093086;28;20466;-85
2022/02/24 06:32:24;;;;;;;14.30;6.60;;;;;;;5.56;65.98;95568.59;5093120;28;20450;-87
2022/02/24 06:34:51;;;;;;;17.10;6.53;;;;;;;5.33;66.42;95561.16;5094276;28;20448;-90
2022/02/24 06:37:19;;;;;;;12.30;7.57;;;;;;;5.15;66.60;95568.19;5094375;28;20459;-85
2022/02/24 06:39:46;;;;;;;12.90;6.60;;;;;;;5.01;68.14;95575.03;5092800;28;20454;-85
2022/02/24 06:42:13;;;;;;;12.67;6.70;;;;;;;4.97;68.24;95574.38;5073910;28;21004;-85
2022/02/24 06:44:40;;;;;;;13.67;7.83;;;;;;;4.89;68.41;95574.75;5097605;28;20537;-85
2022/02/24 06:47:08;;;;;;;12.13;7.40;;;;;;;4.86;68.91;95579.25;5097847;28;20458;-85
2022/02/24 06:49:35;;;;;;;12.53;6.90;;;;;;;4.89;76.86;95579.09;5064616;28;20451;-91
2022/02/24 06:52:02;;;;;;;10.77;8.37;;;;;;;4.89;70.04;95587.75;5099764;28;20491;-88
2022/02/24 06:54:30;;;;;;;13.70;7.00;;;;;;;4.93;69.72;95586.69;5098982;28;20466;-88
2022/02/24 06:56:58;;;;;;;9.93;5.30;;;;;;;4.94;69.58;95592.72;5097910;28;20444;-83
2022/02/24 06:59:25;;;;;;;8.33;5.90;;;;;;;4.94;67.80;95590.13;5099998;28;20458;-86
2022/02/24 07:01:52;;;;;;;14.67;9.00;;;;;;;4.85;67.05;95594.03;5097705;28;20481;-88
2022/02/24 07:04:19;;;;;;;10.87;7.70;;;;;;;4.87;67.23;95602.59;5098563;28;20447;-89
2022/02/24 07:06:47;;;;;;;23.50;11.60;;;;;;;4.91;67.42;95593.69;5097831;28;20455;-89
2022/02/24 07:09:14;;;;;;;11.73;6.57;;;;;;;4.94;68.34;95600.53;5045240;28;20444;-86
2022/02/24 07:11:43;;;;;;;14.20;7.07;;;;;;;5.05;70.11;95593.00;5097577;28;20447;-86
2022/02/24 07:14:17;;;;;;;15.73;8.13;;;;;;;5.17;68.40;95596.72;5097736;28;20438;-88
2022/02/24 07:16:44;;;;;;;14.03;8.40;;;;;;;5.19;67.28;95584.47;5097943;28;20442;-91
2022/02/24 07:19:12;;;;;;;6.50;4.70;;;;;;;5.15;66.32;95594.19;5098130;28;20448;-91
2022/02/24 07:21:39;;;;;;;20.97;9.40;;;;;;;5.19;65.94;95600.91;5098322;28;20529;-90
2022/02/24 07:24:06;;;;;;;16.37;7.27;;;;;;;5.27;67.55;95597.94;5097283;28;20560;-89
2022/02/24 07:26:33;;;;;;;12.50;7.27;;;;;;;5.31;65.90;95599.44;5097327;28;20545;-88
2022/02/24 07:29:02;;;;;;;17.80;9.30;;;;;;;5.40;67.71;95604.16;5097358;28;20458;-87
2022/02/24 07:31:29;;;;;;;14.00;8.73;;;;;;;5.42;66.78;95602.31;5097669;28;20444;-89
2022/02/24 07:33:58;;;;;;;15.37;8.27;;;;;;;5.39;66.23;95592.06;5099030;28;20468;-92
2022/02/24 07:36:25;;;;;;;19.23;9.37;;;;;;;5.36;64.08;95602.66;5098012;28;20456;-90
2022/02/24 07:38:53;;;;;;;13.57;6.20;;;;;;;5.33;65.18;95592.41;5098270;28;20452;-90
2022/02/24 07:41:20;;;;;;;6.30;4.60;;;;;;;5.33;64.93;95602.81;5098088;28;20857;-93
2022/02/24 07:43:47;;;;;;;8.67;5.07;;;;;;;5.37;66.38;95609.53;5097385;28;20472;-90
2022/02/24 07:46:15;;;;;;;17.30;8.10;;;;;;;5.45;65.68;95609.94;5097819;28;20448;-91
2022/02/24 07:48:42;;;;;;;16.33;8.90;;;;;;;5.63;68.09;95609.91;5097572;28;20452;-90
2022/02/24 07:51:09;;;;;;;14.03;7.50;;;;;;;5.76;65.25;95610.91;5097661;28;20451;-89
2022/02/24 07:53:39;;;;;;;19.20;9.67;;;;;;;5.80;64.03;95608.06;5097346;28;20491;-90
2022/02/24 07:56:06;;;;;;;14.13;9.60;;;;;;;5.75;63.94;95614.44;5097172;28;20467;-89
2022/02/24 07:58:33;;;;;;;32.90;12.13;;;;;;;5.68;64.35;95607.88;5097309;28;20487;-89
2022/02/24 08:01:00;;;;;;;19.17;12.87;;;;;;;5.67;64.24;95607.03;5097270;28;20926;-89
2022/02/24 08:03:29;;;;;;;19.57;13.90;;;;;;;5.70;65.66;95613.84;5097164;28;20486;-91
2022/02/24 08:05:56;;;;;;;11.07;7.83;;;;;;;5.68;64.01;95607.88;5087840;28;20448;-88
2022/02/24 08:08:24;;;;;;;12.67;7.70;;;;;;;5.84;65.25;95619.16;5076598;28;20459;-90
2022/02/24 08:10:51;;;;;;;22.53;9.47;;;;;;;5.85;63.58;95606.06;5077363;28;20455;-90
2022/02/24 08:13:18;;;;;;;13.57;9.13;;;;;;;5.89;63.76;95617.16;5076510;28;20467;-93
2022/02/24 08:15:57;;;;;;;15.53;8.10;;;;;;;5.89;63.56;95623.22;5077414;28;20452;-91
2022/02/24 08:18:24;;;;;;;7.07;5.60;;;;;;;5.93;63.15;95628.25;5077446;28;20450;-91
2022/02/24 08:20:52;;;;;;;9.73;5.80;;;;;;;5.92;63.95;95616.16;5077486;28;20946;-91
2022/02/24 08:23:19;;;;;;;10.40;7.70;;;;;;;5.84;62.76;95616.56;5091927;28;20510;-88
2022/02/24 08:25:47;;;;;;;9.40;6.10;;;;;;;5.81;62.77;95604.56;5099981;28;20425;-90
2022/02/24 08:28:14;;;;;;;9.30;5.30;;;;;;;5.87;63.93;95616.38;5103220;28;20456;-89
2022/02/24 08:30:41;;;;;;;7.63;5.57;;;;;;;5.89;63.33;95619.75;5103489;28;20443;-93
2022/02/24 08:33:08;;;;;;;16.20;7.67;;;;;;;5.89;62.51;95618.00;5100469;28;20495;-92
2022/02/24 08:35:36;;;;;;;9.87;7.27;;;;;;;5.90;63.81;95621.47;5099871;28;20547;-92
2022/02/24 08:38:05;;;;;;;18.30;9.70;;;;;;;5.82;62.71;95615.81;5098508;28;20446;-94
2022/02/24 08:40:33;;;;;;;15.83;8.30;;;;;;;5.77;64.74;95609.97;5097950;28;20956;-91
2022/02/24 08:43:01;;;;;;;9.33;6.60;;;;;;;5.85;63.69;95624.28;5096658;28;20483;-92
2022/02/24 08:45:29;;;;;;;7.67;5.53;;;;;;;5.72;62.69;95615.44;5098951;28;20536;-95
2022/02/24 08:47:56;;;;;;;8.50;3.87;;;;;;;5.66;63.05;95609.72;5098014;28;20447;-93
2022/02/24 08:50:23;;;;;;;9.20;5.60;;;;;;;5.59;64.90;95610.06;5097457;28;21006;-93
2022/02/24 08:52:50;;;;;;;14.23;7.53;;;;;;;5.63;63.46;95620.31;5100190;28;20463;-93
2022/02/24 08:55:19;;;;;;;7.63;6.03;;;;;;;5.67;62.55;95617.47;5101187;28;20447;-92
2022/02/24 08:57:46;;;;;;;10.30;6.80;;;;;;;5.66;63.58;95615.78;5099415;28;20510;-92
2022/02/24 09:00:14;;;;;;;9.63;5.07;;;;;;;5.78;63.89;95627.28;5097523;28;20513;-93
2022/02/24 09:02:59;;;;;;;11.37;5.90;;;;;;;5.84;64.32;95630.41;5173327;27;20541;-92
2022/02/24 09:05:26;;;;;;;9.70;5.57;;;;;;;5.82;62.88;95619.25;5153736;27;20461;-92
2022/02/24 09:07:53;;;;;;;15.80;5.10;;;;;;;5.87;63.83;95629.41;5153564;27;20449;-92
2022/02/24 09:10:20;;;;;;;7.60;4.30;;;;;;;5.90;63.91;95624.06;5152801;27;20449;-91
2022/02/24 09:12:47;;;;;;;5.77;4.60;;;;;;;5.96;64.32;95633.31;5151700;27;20452;-92
2022/02/24 09:15:14;;;;;;;4.40;3.97;;;;;;;5.90;66.60;95639.69;5153119;27;20442;-94
2022/02/24 09:17:41;;;;;;;6.97;4.27;;;;;;;5.80;69.38;95626.31;5155011;27;20440;-94
2022/02/24 09:20:11;;;;;;;6.87;4.00;;;;;;;5.69;71.88;95622.59;5148940;27;20462;-86
2022/02/24 09:22:38;;;;;;;5.20;3.97;;;;;;;5.75;73.09;95632.66;5113487;28;20475;-91
2022/02/24 09:25:06;;;;;;;4.00;3.60;;;;;;;5.64;74.51;95625.44;5094479;28;21106;-91
2022/02/24 09:27:35;;;;;;;2.77;2.57;;;;;;;5.69;74.62;95631.22;5113554;28;20440;-94
2022/02/24 09:30:02;;;;;;;4.77;3.63;;;;;;;5.48;74.92;95617.59;5114008;28;20447;-93
2022/02/24 09:32:29;;;;;;;6.33;2.57;;;;;;;5.48;74.52;95606.34;5115216;28;20526;-94
2022/02/24 09:34:57;;;;;;;3.90;3.10;;;;;;;5.73;74.67;95611.06;5113512;28;20451;-92
2022/02/24 09:37:27;;;;;;;5.53;4.07;;;;;;;6.07;75.04;95629.19;5113627;28;20813;-95
2022/02/24 09:39:54;;;;;;;3.50;3.17;;;;;;;6.16;73.78;95615.66;5117285;28;20961;-87
2022/02/24 09:42:21;;;;;;;4.00;3.60;;;;;;;6.33;74.42;95621.66;5113213;27;20474;-93
2022/02/24 09:44:48;;;;;;;7.43;3.20;;;;;;;6.39;74.63;95608.31;5112548;27;20451;-91
2022/02/24 09:47:17;;;;;;;5.90;3.00;;;;;;;6.40;72.31;95623.03;5111580;27;20465;-89
2022/02/24 09:52:28;;;;;;;3.43;3.07;;;;;;;6.36;70.92;95617.16;5112664;28;20489;-89
2022/02/24 09:54:55;;;;;;;4.70;3.37;;;;;;;6.55;71.05;95610.88;5112001;28;20451;-87
2022/02/24 09:57:23;;;;;;;4.30;3.97;;;;;;;6.75;71.55;95614.00;5111484;27;20455;-90
2022/02/24 09:59:50;;;;;;;3.33;3.03;;;;;;;6.87;69.86;95602.00;5111651;27;20639;-88
2022/02/24 10:02:17;;;;;;;3.27;2.90;;;;;;;7.06;69.64;95604.38;5111284;28;20611;-92
2022/02/24 10:05:08;;;;;;;2.73;2.53;;;;;;;7.18;68.68;95601.03;5112006;28;20490;-90
2022/02/24 10:07:40;;;;;;;6.17;3.60;;;;;;;7.35;68.64;95597.41;5111616;27;20448;-89
2022/02/24 10:10:28;;;;;;;2.63;2.40;;;;;;;7.52;67.64;95593.75;5111738;27;20794;-88
2022/02/24 10:13:09;;;;;;;5.10;3.20;;;;;;;7.67;66.61;95588.44;5106052;28;20475;-87
2022/02/24 10:15:40;;;;;;;8.10;4.03;;;;;;;7.82;66.17;95591.03;5102001;28;20458;-88
2022/02/24 10:18:15;;;;;;;3.63;3.33;;;;;;;7.81;64.16;95582.34;5097989;28;20542;-90
2022/02/24 10:20:44;;;;;;;3.10;2.80;;;;;;;7.59;63.51;95580.25;5099447;28;20465;-90
2022/02/24 10:23:14;;;;;;;3.03;2.37;;;;;;;7.65;63.97;95582.47;5098058;28;20478;-89
2022/02/24 10:25:43;;;;;;;2.83;2.63;;;;;;;7.57;63.03;95571.66;5097776;28;20454;-88
2022/02/24 10:28:29;;;;;;;6.07;2.90;;;;;;;7.29;63.58;95572.53;5097154;28;20799;-88
2022/02/24 10:30:56;;;;;;;2.47;2.27;;;;;;;7.03;64.32;95568.88;5097110;28;20527;-88
2022/02/24 10:33:27;;;;;;;5.30;3.00;;;;;;;6.76;65.60;95567.91;5096739;28;20454;-87
2022/02/24 10:35:54;;;;;;;3.33;2.90;;;;;;;6.81;66.18;95561.47;5097915;28;20448;-88
2022/02/24 10:38:28;;;;;;;3.60;3.17;;;;;;;6.89;66.72;95574.06;5096843;28;20548;-88
2022/02/24 10:40:56;;;;;;;2.43;2.23;;;;;;;6.86;66.36;95558.59;5097002;28;20439;-88
2022/02/24 10:43:26;;;;;;;3.10;2.80;;;;;;;6.94;65.96;95558.13;5097085;28;20440;-88
2022/02/24 10:46:04;;;;;;;3.13;2.93;;;;;;;7.01;65.77;95557.69;5097143;28;20531;-87
2022/02/24 10:48:33;;;;;;;3.90;2.53;;;;;;;7.15;65.85;95554.22;5097235;28;20444;-88
2022/02/24 10:51:03;;;;;;;3.20;2.90;;;;;;;7.29;64.74;95549.03;5097575;28;20531;-88
2022/02/24 10:53:33;;;;;;;10.90;2.77;;;;;;;7.43;65.07;95541.16;5097195;28;20486;-87
2022/02/24 10:56:06;;;;;;;10.10;3.80;;;;;;;7.58;65.68;95547.22;5096801;28;20468;-89
2022/02/24 10:58:35;;;;;;;3.97;2.80;;;;;;;7.70;64.32;95550.81;5096811;28;20458;-89
2022/02/24 11:01:15;;;;;;;2.87;2.67;;;;;;;7.70;64.12;95545.59;5096842;28;20574;-86
2022/02/24 11:03:44;;;;;;;5.53;4.20;;;;;;;7.65;64.26;95539.84;5097295;28;20435;-88
2022/02/24 11:06:14;;;;;;;7.87;4.90;;;;;;;7.73;64.39;95541.03;5096640;28;20552;-88
2022/02/24 11:08:44;;;;;;;5.63;3.10;;;;;;;7.78;64.09;95538.13;5096966;28;20539;-88
2022/02/24 11:11:18;;;;;;;4.83;3.30;;;;;;;7.67;64.59;95535.34;5096879;28;20446;-88
2022/02/24 11:13:45;;;;;;;3.87;3.40;;;;;;;7.72;64.99;95528.06;5096906;28;20448;-88
2022/02/24 11:16:12;;;;;;;2.90;2.60;;;;;;;7.85;64.52;95528.13;5097096;28;20873;-88
2022/02/24 11:18:40;;;;;;;8.70;4.70;;;;;;;7.85;63.37;95522.91;5097380;28;20447;-84
2022/02/24 11:21:11;;;;;;;4.13;3.63;;;;;;;7.46;63.85;95522.69;5096591;28;20501;-87
2022/02/24 11:23:38;;;;;;;6.93;3.40;;;;;;;7.64;65.01;95515.50;5096503;28;20861;-86
2022/02/24 11:26:31;;;;;;;7.10;2.67;;;;;;;7.70;64.10;95511.66;5094568;28;20432;-82
2022/02/24 11:29:03;;;;;;;3.37;3.00;;;;;;;7.68;63.89;95506.53;5096634;28;20509;-86
2022/02/24 11:31:40;;;;;;;2.83;2.63;;;;;;;7.59;63.10;95511.50;5096927;28;20456;-88
2022/02/24 11:34:07;;;;;;;4.10;3.20;;;;;;;7.63;62.60;95513.81;5096991;28;21285;-90
2022/02/24 11:36:40;;;;;;;6.80;3.83;;;;;;;7.82;63.03;95504.81;5098664;28;20447;-91
2022/02/24 11:39:12;;;;;;;9.70;4.17;;;;;;;7.98;63.08;95495.88;5096777;28;20447;-94
2022/02/24 11:41:59;;;;;;;5.43;3.70;;;;;;;8.26;62.34;95507.16;5097921;28;20476;-92
2022/02/24 11:44:38;;;;;;;4.40;3.70;;;;;;;8.31;60.72;95507.66;5098276;28;20458;-90
2022/02/24 11:47:07;;;;;;;6.17;3.60;;;;;;;8.60;78.44;95492.69;5096104;28;20462;-84
2022/02/24 11:50:09;;;;;;;6.23;4.00;;;;;;;9.72;59.78;95506.72;5089465;28;20438;-87
2022/02/24 11:52:50;;;;;;;7.17;4.90;;;;;;;9.59;57.95;95506.75;5075951;28;20455;-90
2022/02/24 11:55:44;;;;;;;8.17;4.17;;;;;;;8.81;58.51;95509.56;5075926;28;20453;-91
2022/02/24 11:58:35;;;;;;;5.10;3.33;;;;;;;8.54;59.64;95507.03;5075188;28;20467;-94
2022/02/24 12:01:25;;;;;;;3.70;3.40;;;;;;;8.56;59.70;95501.69;5075944;28;21012;-92
2022/02/24 12:04:03;;;;;;;4.30;3.27;;;;;;;8.55;59.98;95502.63;5095096;28;20440;-94
2022/02/24 12:06:53;;;;;;;6.37;3.20;;;;;;;8.72;59.25;95506.75;5098066;28;21126;-94
2022/02/24 12:09:25;;;;;;;6.50;5.00;;;;;;;8.86;58.74;95498.78;5055564;28;21243;-92
2022/02/24 12:11:54;;;;;;;4.00;3.10;;;;;;;8.89;58.49;95488.09;5054157;28;20925;-90
2022/02/24 12:15:00;;;;;;;6.40;2.87;;;;;;;8.93;58.66;95486.94;5053987;28;20450;-91
2022/02/24 12:17:46;;;;;;;12.43;5.30;;;;;;;8.72;57.91;95476.19;5054458;28;20995;-92
2022/02/24 12:20:20;;;;;;;6.20;4.13;;;;;;;8.71;57.46;95477.13;5054102;28;20454;-92
2022/02/24 12:22:48;;;;;;;4.90;3.17;;;;;;;8.83;57.42;95476.28;5053772;28;20473;-93